Agate Bay, California
Current Conditions -  °F | °C
As of 2:15 AM on Saturday 25 Oct 2014 (Local Time) from KTRK Reporting Station
Clear Clear  
Wind Chill: 54°   Ceiling: Unl
Heat Index: 54°   Visibility: 10mi
Dew Point: 23°   Wind: 24mph
Humidity: 30%   Direction: 200°SSW
Pressure: 30.04"   Gusts: 40mph
Location:  39.2392°N, 120.102°W
Report Text: KTRK 250915Z AUTO 20021G35KT 10SM CLR 12/M05 A3004 RMK AO2
Loading
Personal Weather Stations






























Interactive Weather Map
Tropical Storm Tracking
New forecast layout! Learn more

10-Day Weather Forecast

Advertisements
Track Severe Weather on mobile